Latest Weather Observations for Lismore Airport

IDN60801

Issued at 5:06 pm EDT Wednesday 28 January 2015 (issued every 30 minutes, with the page automatically refreshed every 10 minutes)

About weather observations | Map of weather stations | Latest weather observations for NSW | Other Formats
Station Details ID: 058214 Name: LISMORE AIRPORT AWS Lat: -28.83 Lon: 153.26 Height: 9.21 m
Data from the previous 72 hours. | See also: Recent months for locations in New South Wales
Date/Time
EDT
Temp
°C
App
Temp
°C
Dew
Point
Rel
Hum
%
Delta-T
°C
Wind Press
QNH
hPa
Press
MSL
hPa
Rain
since 9 am
mm
Dir
 
Spd
km/h
Gust
km/h
Spd
kts
Gust
kts
28/05:00pm 20.7 20.3 19.0 90 1.1 SSW 19 26 10 14 1007.7 1007.7 5.8
28/04:30pm 20.7 19.9 19.2 91 0.9 SSW 22 28 12 15 1007.6 1007.6 5.8
28/04:00pm 20.7 19.1 18.3 86 1.5 S 24 39 13 21 1007.7 1007.7 5.8
28/03:30pm 22.1 19.4 19.3 84 1.8 SSE 32 44 17 24 1007.4 1007.4 5.8
28/03:21pm 23.6 23.5 19.9 80 2.4 SSW 20 33 11 18 1007.3 1007.3 5.8
28/03:00pm 21.7 24.0 19.4 87 1.5 SSW 6 9 3 5 1007.2 1007.2 5.8
28/02:41pm 21.1 23.3 19.7 92 0.9 SW 7 9 4 5 1007.4 1007.4 5.8
28/02:31pm 20.4 21.9 18.9 91 0.9 SW 9 15 5 8 1007.4 1007.4 5.8
28/02:30pm 20.4 22.0 19.1 92 0.8 SW 9 20 5 11 1007.4 1007.4 5.8
28/02:21pm 20.5 21.0 19.2 92 0.8 S 15 26 8 14 1007.7 1007.7 5.0
28/02:18pm 20.6 21.4 19.1 91 0.9 S 13 26 7 14 1007.8 1007.8 4.8
28/02:16pm 20.7 22.2 19.0 90 1.1 S 9 20 5 11 1007.8 1007.8 4.2
28/02:00pm 21.1 23.5 19.7 92 0.9 E 6 13 3 7 1007.9 1007.9 3.4
28/01:53pm 21.2 24.7 19.5 90 1.1 CALM 0 0 0 0 1007.8 1007.8 3.2
28/01:30pm 21.3 24.4 19.4 89 1.2 ESE 2 9 1 5 1007.9 1007.9 3.0
28/01:17pm 21.2 23.7 19.8 92 0.9 NW 6 9 3 5 1008.0 1008.0 3.0
28/01:00pm 20.4 23.8 19.4 94 0.6 CALM 0 0 0 0 1008.1 1008.1 3.0
28/12:30pm 20.2 23.0 18.9 92 0.8 NE 2 7 1 4 1008.4 1008.4 2.4
28/12:08pm 19.9 22.2 18.6 92 0.8 N 4 9 2 5 1008.5 1008.5 1.8
28/12:07pm 19.8 22.1 18.5 92 0.8 N 4 9 2 5 1008.6 1008.6 1.8
28/12:00pm 19.7 21.5 18.4 92 0.8 N 6 9 3 5 1008.6 1008.6 1.8
28/11:38am 19.6 21.1 18.1 91 0.9 WNW 7 9 4 5 1008.5 1008.5 1.8
28/11:30am 19.6 21.3 18.1 91 0.9 WNW 6 9 3 5 1008.5 1008.5 1.8
28/11:06am 19.5 20.8 17.6 89 1.2 NW 7 13 4 7 1008.7 1008.7 0.6
28/11:00am 19.6 20.5 17.6 88 1.2 WNW 9 13 5 7 1008.7 1008.7 0.2
28/10:30am 20.1 21.0 17.5 85 1.6 WSW 9 15 5 8 1008.5 1008.5 0.0
28/10:00am 19.8 21.6 17.4 86 1.5 W 4 7 2 4 1008.3 1008.3 0.0
28/09:30am 19.3 20.5 17.3 88 1.2 WSW 7 13 4 7 1008.0 1008.0 0.0
28/09:00am 18.8 20.3 16.6 87 1.3 WSW 4 9 2 5 1008.0 1008.0 29.8
28/08:30am 18.7 19.3 16.8 89 1.1 SW 9 15 5 8 1007.8 1007.8 29.8
28/08:00am 18.5 19.1 16.7 89 1.1 SSW 9 13 5 7 1007.7 1007.7 29.8
28/07:41am 18.4 19.3 16.7 90 1.0 SSW 7 15 4 8 1007.6 1007.6 29.8
28/07:30am 18.3 19.6 17.0 92 0.8 NNW 6 13 3 7 1007.5 1007.5 29.8
28/07:00am 17.8 19.7 16.8 94 0.6 ESE 2 9 1 5 1007.2 1007.2 29.8
28/06:30am 17.5 18.6 16.7 95 0.5 SW 6 13 3 7 1006.8 1006.8 29.8
28/06:11am 17.5 19.5 16.9 96 0.4 W 2 11 1 6 1006.6 1006.6 29.8
28/06:00am 17.7 20.1 17.1 96 0.4 CALM 0 0 0 0 1006.4 1006.4 29.8
28/05:52am 17.8 20.3 17.3 97 0.3 CALM 0 0 0 0 1006.4 1006.4 29.8
28/05:30am 17.7 19.8 17.1 96 0.4 W 2 7 1 4 1006.7 1006.7 29.4
28/05:24am 17.5 19.5 16.9 96 0.4 WNW 2 7 1 4 1006.6 1006.6 29.4
28/05:00am 17.6 18.7 17.0 96 0.4 WNW 7 9 4 5 1006.8 1006.8 29.2
28/04:46am 17.4 18.4 16.8 96 0.4 WSW 7 9 4 5 1006.7 1006.7 29.2
28/04:42am 17.5 18.5 16.9 96 0.4 WSW 7 9 4 5 1006.7 1006.7 29.2
28/04:30am 17.4 19.3 16.8 96 0.4 S 2 13 1 7 1006.7 1006.7 29.0
28/04:21am 17.5 18.1 16.9 96 0.4 SSW 9 13 5 7 1006.9 1006.9 28.0
28/04:00am 17.5 17.8 16.9 96 0.4 WSW 11 17 6 9 1007.6 1007.6 26.4
28/03:30am 17.6 18.9 17.0 96 0.4 SW 6 13 3 7 1007.6 1007.6 25.0
28/03:00am 17.6 17.9 17.0 96 0.4 SSW 11 19 6 10 1007.8 1007.8 24.8
28/02:30am 17.8 18.2 17.3 97 0.3 SSW 11 15 6 8 1008.2 1008.2 24.4
28/02:00am 18.0 17.6 17.2 95 0.5 S 15 20 8 11 1008.8 1008.8 23.8
28/01:30am 18.1 17.4 17.3 95 0.5 SW 17 22 9 12 1009.6 1009.6 21.4
28/01:11am 18.5 17.4 17.7 95 0.5 SW 20 28 11 15 1009.9 1009.9 20.2
28/01:00am 18.7 17.9 17.9 95 0.5 SSW 19 30 10 16 1009.7 1009.7 19.2
28/12:56am 18.9 18.6 18.2 96 0.4 S 17 24 9 13 1009.6 1009.6 18.4
28/12:40am 19.2 18.6 18.5 96 0.4 SSW 19 24 10 13 1009.8 1009.8 16.4
28/12:30am 19.4 18.8 18.9 97 0.3 SSW 20 28 11 15 1009.7 1009.7 15.4
28/12:29am 19.4 18.7 18.7 96 0.4 SSW 20 28 11 15 1009.6 1009.6 15.0
28/12:00am 19.6 19.2 18.9 96 0.4 SSW 19 24 10 13 1009.5 1009.5 12.4
 
Date/Time
EDT
Temp
°C
App
Temp
°C
Dew
Point
Rel
Hum
%
Delta-T
°C
Wind Press
QNH
hPa
Press
MSL
hPa
Rain
since 9 am
mm
Dir
 
Spd
km/h
Gust
km/h
Spd
kts
Gust
kts
27/11:55pm 19.6 19.5 18.8 95 0.5 SSW 17 24 9 13 1009.6 1009.6 12.0
27/11:41pm 19.9 20.8 19.2 96 0.4 S 13 17 7 9 1009.5 1009.5 11.0
27/11:37pm 20.0 20.9 19.3 96 0.4 S 13 19 7 10 1009.4 1009.4 10.4
27/11:30pm 20.0 20.9 19.2 95 0.5 S 13 19 7 10 1009.4 1009.4 10.0
27/11:00pm 20.1 20.5 18.9 93 0.8 SSW 15 24 8 13 1009.3 1009.3 9.4
27/10:30pm 20.5 20.6 19.2 92 0.8 SSW 17 22 9 12 1009.2 1009.2 9.0
27/10:00pm 21.0 20.4 18.9 88 1.3 S 20 26 11 14 1008.9 1008.9 7.0
27/09:30pm 22.2 23.0 19.0 82 2.0 S 13 17 7 9 1008.6 1008.6 5.6
27/09:00pm 22.5 23.7 19.1 81 2.2 SSE 11 13 6 7 1008.0 1008.0 5.6
27/08:30pm 22.7 23.4 18.9 79 2.4 SSE 13 17 7 9 1007.8 1007.8 5.6
27/08:00pm 22.4 24.0 19.2 82 2.0 SE 9 13 5 7 1007.5 1007.5 5.6
27/07:30pm 22.5 26.8 21.1 92 0.9 CALM 0 0 0 0 1007.3 1007.3 5.6
27/07:00pm 22.6 27.0 21.4 93 0.8 CALM 0 0 0 0 1007.0 1007.0 5.6
27/06:35pm 22.0 24.8 20.8 93 0.8 NNE 7 13 4 7 1006.4 1006.4 5.6
27/06:30pm 22.1 24.6 21.1 94 0.7 NE 9 13 5 7 1006.4 1006.4 5.6
27/06:07pm 22.1 26.4 21.1 94 0.7 CALM 0 6 0 3 1006.3 1006.3 5.2
27/06:06pm 22.2 26.1 21.2 94 0.7 E 2 7 1 4 1006.3 1006.3 5.2
27/06:00pm 22.2 25.2 21.2 94 0.7 ESE 7 13 4 7 1006.2 1006.2 4.8
27/05:32pm 22.5 24.1 20.8 90 1.1 E 13 19 7 10 1005.9 1005.9 1.2
27/05:30pm 22.4 24.0 20.7 90 1.1 E 13 19 7 10 1005.9 1005.9 1.0
27/05:00pm 23.3 23.8 20.1 82 2.1 ENE 17 28 9 15 1006.0 1006.0 0.0
27/04:30pm 25.3 25.5 19.4 70 3.8 ESE 17 24 9 13 1006.3 1006.3 0.0
27/04:00pm 25.5 25.5 18.9 67 4.2 E 17 24 9 13 1006.5 1006.5 0.0
27/03:30pm 25.4 25.0 19.3 69 3.9 ESE 20 28 11 15 1006.8 1006.8 0.0
27/03:00pm 26.1 26.4 19.7 68 4.2 ESE 17 24 9 13 1007.0 1007.0 0.0
27/02:30pm 26.6 26.3 19.5 65 4.6 ESE 20 30 11 16 1007.2 1007.2 0.0
27/02:00pm 26.7 26.3 19.3 64 4.8 ESE 20 28 11 15 1007.5 1007.5 0.0
27/01:30pm 26.6 26.2 19.0 63 4.9 ESE 19 30 10 16 1008.0 1008.0 0.0
27/01:00pm 27.3 26.8 19.1 61 5.3 ESE 20 30 11 16 1008.1 1008.1 0.0
27/12:30pm 27.1 26.3 18.1 58 5.7 ESE 19 26 10 14 1008.5 1008.5 0.0
27/12:00pm 27.7 27.2 19.2 60 5.5 ESE 20 32 11 17 1008.7 1008.7 0.0
27/11:30am 27.2 26.7 20.0 64 4.7 ESE 22 32 12 17 1008.5 1008.5 0.0
27/11:00am 28.4 28.9 20.9 64 5.0 ESE 19 24 10 13 1008.6 1008.6 0.0
27/10:30am 28.1 29.1 21.1 65 4.7 ESE 17 26 9 14 1008.9 1008.9 0.0
27/10:00am 26.9 28.0 20.5 68 4.2 ESE 15 19 8 10 1008.8 1008.8 0.0
27/09:30am 26.7 27.6 20.8 70 3.9 E 17 24 9 13 1008.6 1008.6 0.0
27/09:00am 26.0 29.2 22.3 80 2.5 SSE 9 15 5 8 1008.8 1008.8 0.6
27/08:30am 25.2 29.8 23.1 88 1.4 SSE 4 9 2 5 1008.9 1008.9 0.6
27/08:00am 24.0 27.5 22.1 89 1.3 ESE 7 9 4 5 1008.7 1008.7 0.6
27/07:30am 23.6 27.4 22.8 95 0.5 SSE 7 11 4 6 1008.6 1008.6 0.6
27/07:00am 22.9 26.6 22.6 98 0.2 SSE 7 9 4 5 1008.1 1008.1 0.6
27/06:30am 22.6 27.4 22.1 97 0.3 CALM 0 4 0 2 1008.0 1008.0 0.4
27/06:00am 22.4 25.4 21.9 97 0.3 S 9 11 5 6 1007.7 1007.7 0.2
27/05:30am 22.6 25.7 22.1 97 0.3 SSE 9 9 5 5 1007.5 1007.5 0.2
27/05:00am 22.7 26.3 22.4 98 0.2 S 7 11 4 6 1007.5 1007.5 0.0
27/04:30am 22.7 25.9 22.4 98 0.2 S 9 11 5 6 1007.4 1007.4 0.0
27/04:00am 22.9 26.7 22.7 99 0.1 SSE 7 9 4 5 1007.5 1007.5 0.0
27/03:30am 23.0 26.4 22.7 98 0.2 SSE 9 11 5 6 1007.4 1007.4 0.0
27/03:00am 23.3 27.3 23.1 99 0.1 SE 7 9 4 5 1007.7 1007.7 0.0
27/02:30am 23.2 28.5 23.0 99 0.1 CALM 0 0 0 0 1008.0 1008.0 0.0
27/02:00am 23.1 28.3 22.8 98 0.2 CALM 0 0 0 0 1008.2 1008.2 0.0
27/01:30am 23.6 28.9 23.1 97 0.3 CALM 0 0 0 0 1008.2 1008.2 0.0
27/01:00am 23.5 28.7 22.8 96 0.5 CALM 0 0 0 0 1008.7 1008.7 0.0
27/12:30am 23.8 28.7 23.1 96 0.5 SE 2 7 1 4 1009.0 1009.0 0.0
27/12:00am 23.9 29.4 23.4 97 0.3 CALM 0 0 0 0 1009.1 1009.1 0.0
 
Date/Time
EDT
Temp
°C
App
Temp
°C
Dew
Point
Rel
Hum
%
Delta-T
°C
Wind Press
QNH
hPa
Press
MSL
hPa
Rain
since 9 am
mm
Dir
 
Spd
km/h
Gust
km/h
Spd
kts
Gust
kts
26/11:30pm 23.8 27.9 23.3 97 0.3 ESE 7 11 4 6 1009.1 1009.1 0.0
26/11:00pm 23.8 29.2 23.3 97 0.3 CALM 0 0 0 0 1009.3 1009.3 0.0
26/10:30pm 23.7 28.9 22.9 95 0.5 CALM 0 11 0 6 1009.5 1009.5 0.0
26/10:00pm 24.2 29.5 23.0 93 0.8 CALM 0 0 0 0 1009.6 1009.6 0.0
26/09:30pm 24.4 29.8 23.2 93 0.8 CALM 0 0 0 0 1009.7 1009.7 0.0
26/09:00pm 24.2 29.1 23.0 93 0.8 S 2 7 1 4 1009.5 1009.5 0.0
26/08:30pm 24.3 28.3 23.1 93 0.8 SSE 7 11 4 6 1009.1 1009.1 0.0
26/08:00pm 24.6 28.1 22.8 90 1.2 SE 9 11 5 6 1008.8 1008.8 0.0
26/07:30pm 25.1 28.4 22.6 86 1.7 S 9 11 5 6 1008.7 1008.7 0.0
26/07:00pm 25.8 29.7 21.9 79 2.6 SE 4 9 2 5 1008.8 1008.8 0.0
26/06:30pm 26.0 29.0 21.9 78 2.7 SE 9 17 5 9 1008.5 1008.5 0.0
26/06:00pm 26.3 27.7 21.9 77 2.9 SE 17 20 9 11 1007.9 1007.9 0.0
26/05:30pm 26.8 28.2 21.8 74 3.3 SE 17 26 9 14 1007.6 1007.6 0.0
26/05:00pm 27.7 28.4 21.5 69 4.1 SE 20 30 11 16 1007.0 1007.0 0.0
26/04:30pm 28.9 30.0 22.4 68 4.4 ESE 20 30 11 16 1006.7 1006.7 0.0
26/04:00pm 29.3 30.0 23.0 69 4.3 SE 24 33 13 18 1007.0 1007.0 0.0
26/03:30pm 28.4 29.1 22.2 69 4.2 SE 22 33 12 18 1006.3 1006.3 0.0
26/03:00pm 28.4 28.7 22.2 69 4.2 SE 24 33 13 18 1006.7 1006.7 0.0
26/02:30pm 29.6 29.7 22.6 66 4.8 SE 26 33 14 18 1006.7 1006.7 0.0
26/02:00pm 30.2 30.8 22.1 62 5.5 SE 22 30 12 16 1006.7 1006.7 0.0
26/01:30pm 30.9 30.5 21.7 58 6.2 SE 26 33 14 18 1006.7 1006.7 0.0
26/01:00pm 31.4 32.9 23.0 61 5.8 SSE 20 28 11 15 1007.3 1007.3 0.0
26/12:30pm 31.8 34.2 23.6 62 5.7 SSE 17 26 9 14 1007.5 1007.5 0.0
26/12:00pm 31.1 33.6 22.4 60 5.9 SE 13 19 7 10 1007.7 1007.7 0.0
26/11:30am 30.5 34.5 23.7 67 4.7 S 9 17 5 9 1008.0 1008.0 0.0
26/11:00am 29.7 32.3 22.7 66 4.8 S 13 20 7 11 1008.2 1008.2 0.0
26/10:30am 28.8 31.3 22.5 68 4.3 SE 13 17 7 9 1008.1 1008.1 0.0
26/10:00am 28.1 31.3 22.3 70 3.9 S 9 15 5 8 1008.0 1008.0 0.0
26/09:30am 26.8 30.5 22.2 76 3.1 SSE 6 11 3 6 1008.1 1008.1 0.0
26/09:00am 25.1 29.3 21.8 82 2.2 SSE 2 7 1 4 1007.9 1007.9 6.2
26/08:30am 22.8 27.0 20.9 89 1.2 CALM 0 0 0 0 1007.9 1007.9 6.2
26/08:00am 22.3 25.9 22.1 99 0.1 NNE 6 7 3 4 1007.9 1007.9 6.2
26/07:30am 21.1 23.6 21.1 100 0.0 N 9 11 5 6 1007.6 1007.6 6.2
26/07:22am 21.1 23.3 21.1 100 0.0 NNW 11 17 6 9 1007.5 1007.5 6.2
26/07:18am 21.0 22.7 21.0 100 0.0 NNW 13 17 7 9 1007.4 1007.4 6.2
26/07:00am 20.6 22.9 20.6 100 0.0 N 9 13 5 7 1007.2 1007.2 6.2
26/06:48am 20.5 22.7 20.3 99 0.1 N 9 11 5 6 1007.0 1007.0 6.2
26/06:35am 20.3 22.4 20.1 99 0.1 N 9 11 5 6 1006.8 1006.8 6.2
26/06:30am 20.3 22.4 20.1 99 0.1 N 9 11 5 6 1006.7 1006.7 6.2
26/06:28am 20.3 22.4 20.1 99 0.1 N 9 11 5 6 1006.7 1006.7 6.2
26/06:09am 20.4 22.1 20.2 99 0.1 N 11 13 6 7 1006.4 1006.4 6.2
26/06:05am 20.3 22.4 20.1 99 0.1 N 9 11 5 6 1006.4 1006.4 6.2
26/06:02am 20.3 22.4 20.1 99 0.1 N 9 11 5 6 1006.3 1006.3 6.2
26/06:00am 20.3 22.4 20.1 99 0.1 N 9 11 5 6 1006.3 1006.3 6.2
26/05:30am 20.3 22.4 20.1 99 0.1 N 9 11 5 6 1006.1 1006.1 6.2
26/05:00am 20.4 22.5 20.2 99 0.1 N 9 11 5 6 1005.9 1005.9 6.2
26/04:30am 20.8 22.7 20.6 99 0.1 N 11 15 6 8 1005.8 1005.8 6.0
26/04:00am 20.9 22.5 20.7 99 0.1 NNW 13 17 7 9 1005.8 1005.8 6.0
26/03:30am 20.8 22.3 20.6 99 0.1 NNW 13 17 7 9 1005.5 1005.5 6.0
26/03:00am 20.8 23.0 20.5 98 0.2 N 9 11 5 6 1005.6 1005.6 6.0
26/02:30am 21.0 25.0 20.5 97 0.3 CALM 0 0 0 0 1005.9 1005.9 6.0
26/02:00am 20.9 24.3 20.2 96 0.5 NW 2 6 1 3 1006.3 1006.3 6.0
26/01:30am 21.6 25.9 21.1 97 0.3 CALM 0 0 0 0 1006.3 1006.3 6.0
26/01:00am 21.5 25.6 20.7 95 0.5 CALM 0 0 0 0 1006.4 1006.4 6.0
26/12:30am 22.0 25.0 21.2 95 0.5 SSW 7 11 4 6 1006.3 1006.3 6.0
26/12:00am 22.2 26.4 21.0 93 0.8 CALM 0 0 0 0 1006.0 1006.0 6.0
 
Date/Time
EDT
Temp
°C
App
Temp
°C
Dew
Point
Rel
Hum
%
Delta-T
°C
Wind Press
QNH
hPa
Press
MSL
hPa
Rain
since 9 am
mm
Dir
 
Spd
km/h
Gust
km/h
Spd
kts
Gust
kts
25/11:30pm 22.3 24.6 21.3 94 0.7 N 11 15 6 8 1006.2 1006.2 6.0
25/11:00pm 22.5 26.0 21.1 92 0.9 N 4 9 2 5 1006.3 1006.3 6.0
25/10:30pm 22.7 23.9 21.5 93 0.8 N 17 19 9 10 1006.5 1006.5 6.0
25/10:00pm 23.8 26.5 22.1 90 1.1 NNW 11 19 6 10 1006.6 1006.6 6.0
25/09:30pm 23.8 26.8 22.6 93 0.8 N 11 19 6 10 1006.5 1006.5 6.0
25/09:00pm 23.9 26.6 22.2 90 1.1 SSW 11 24 6 13 1006.2 1006.2 6.0
25/08:30pm 23.4 26.0 22.7 96 0.5 NNE 13 17 7 9 1005.0 1005.0 6.0
25/08:00pm 22.4 22.4 21.0 92 0.9 N 22 32 12 17 1004.8 1004.8 6.0
25/07:45pm 23.0 24.0 21.1 89 1.2 NW 17 33 9 18 1005.8 1005.8 5.8
25/07:30pm 24.2 23.4 21.7 86 1.7 W 28 39 15 21 1005.9 1005.9 4.4
25/07:18pm 27.3 28.9 23.3 79 2.7 S 20 30 11 16 1005.1 1005.1 1.2
25/07:02pm 29.9 31.0 22.3 63 5.2 SE 20 32 11 17 1003.1 1003.1 0.0
25/07:01pm 29.9 30.9 22.1 63 5.3 SE 20 32 11 17 1003.0 1003.0 0.0
25/07:00pm 29.9 31.3 22.6 65 5.0 SE 19 32 10 17 1003.0 1003.0 0.0
25/06:30pm 30.8 31.4 22.1 59 5.9 ENE 22 33 12 18 1002.0 1002.0 0.0
25/06:00pm 32.8 33.6 23.2 57 6.7 ENE 24 32 13 17 1002.1 1002.1 0.0
25/05:30pm 33.3 34.9 23.3 55 6.9 ENE 20 26 11 14 1002.0 1002.0 0.0

Other Formats:

Comma delimited format used in spreadsheet applications
http://www.bom.gov.au/fwo/IDN60801/IDN60801.94572.axf

JavaScript Object Notation format (JSON) in row-major order
http://www.bom.gov.au/fwo/IDN60801/IDN60801.94572.json